KBLM/BLM METAR and TAF weather

Enter ICAO airport designator
Station Type Date Time Source
KBLM METAR 2021/06/22 23:18 UTC NOAA

KBLM 222318Z AUTO 27006KT 10SM FEW007 SCT015 OVC050 17/16 A2983 RMK AO2 PNO $


Station Type Date Time Source
KBLM Decoded METAR 2021/06/22 23:18 UTC NOAA

Belmar-Farmingdale, NJ, United States (KBLM) 40-11N 074-08W
Jun 22, 2021 - 07:18 PM EDT / 2021.06.22 2318 UTC
Wind: from the W (270 degrees) at 7 MPH (6 KT):0
Visibility: 10 mile(s):0
Sky conditions: overcast
Temperature: 62 F (17 C)
Dew Point: 60 F (16 C)
Relative Humidity: 93%
Pressure (altimeter): 29.83 in. Hg (1010 hPa)
ob: KBLM 222318Z AUTO 27006KT 10SM FEW007 SCT015 OVC050 17/16 A2983 RMK AO2 PNO
cycle: 23

Station Type Date Time Source
KBLM TAF UTC NOAA

Error!

Example: see airport list